createdAt,value
2024-02-29T20:48:33.627Z,9.762843
2024-02-29T20:49:33.639Z,9.762858
2024-02-29T20:50:33.599Z,9.762804
2024-02-29T20:51:33.622Z,9.762836
2024-02-29T20:52:33.660Z,9.762748
2024-02-29T20:53:33.571Z,9.762866
2024-02-29T20:54:33.553Z,9.762865
2024-02-29T20:55:33.609Z,9.762911
2024-02-29T20:56:33.620Z,9.762943
2024-02-29T20:57:33.556Z,9.762950
2024-02-29T20:58:33.574Z,9.762994
2024-02-29T20:59:33.531Z,9.763009
2024-02-29T21:00:33.511Z,9.762863
2024-02-29T21:01:33.571Z,9.762918
2024-02-29T21:02:33.462Z,9.762959
2024-02-29T21:03:33.497Z,9.762941
2024-02-29T21:04:33.452Z,9.762847
2024-02-29T21:05:33.444Z,9.762900
2024-02-29T21:06:33.436Z,9.762806
2024-02-29T21:08:55.203Z,9.762990
2024-02-29T21:09:33.417Z,9.763226
2024-02-29T21:10:33.495Z,9.763226
2024-02-29T21:11:33.468Z,9.763226
2024-02-29T21:12:33.575Z,9.763226
2024-02-29T21:13:33.448Z,9.762765
2024-02-29T21:14:33.356Z,9.762890
2024-02-29T21:15:33.403Z,9.762589
2024-02-29T21:16:33.358Z,9.762719
2024-02-29T21:17:35.925Z,9.762719
2024-02-29T21:18:33.342Z,9.762749
2024-02-29T21:19:33.408Z,9.762712
2024-02-29T21:20:34.335Z,9.762942
2024-02-29T21:21:33.316Z,9.762778
2024-02-29T21:22:33.345Z,9.762959
2024-02-29T21:23:33.432Z,9.762959
2024-02-29T21:24:33.278Z,9.762959
2024-02-29T21:25:33.350Z,9.762694
2024-02-29T21:26:33.268Z,9.762871
2024-02-29T21:27:33.245Z,9.762905
2024-02-29T21:28:33.270Z,9.762831
2024-02-29T21:29:33.219Z,9.762956
2024-02-29T21:30:33.209Z,9.762910
2024-02-29T21:31:33.256Z,9.762773
2024-02-29T21:32:33.255Z,9.762925
2024-02-29T21:33:33.203Z,9.763027
2024-02-29T21:34:33.225Z,9.763263
2024-02-29T21:35:33.170Z,9.763030
2024-02-29T21:36:33.158Z,9.762998
2024-02-29T21:37:33.203Z,9.762705
2024-02-29T21:38:33.149Z,9.762873
2024-02-29T21:39:39.895Z,9.762856
2024-02-29T21:40:34.134Z,9.762905
2024-02-29T21:41:34.992Z,9.762836
2024-02-29T21:42:34.102Z,9.762902
2024-02-29T21:43:33.083Z,9.762736
2024-02-29T21:44:33.143Z,9.763075
2024-02-29T21:45:33.124Z,9.762863
2024-02-29T21:46:33.096Z,9.762759
2024-02-29T21:47:33.116Z,9.762735
2024-02-29T21:48:33.093Z,9.762856
2024-02-29T21:49:33.048Z,9.762792
2024-02-29T21:50:33.042Z,9.762879
2024-02-29T21:51:33.030Z,9.762816
2024-02-29T21:52:33.128Z,9.762728
2024-02-29T21:53:33.003Z,9.762673
2024-02-29T21:54:32.980Z,9.762696
2024-02-29T21:55:32.997Z,9.762769
2024-02-29T21:56:33.016Z,9.762720
2024-02-29T21:57:32.961Z,9.762861
2024-02-29T21:58:33.044Z,9.762663
2024-02-29T21:59:32.935Z,9.762771
2024-02-29T22:00:33.018Z,9.762735
2024-02-29T22:01:33.008Z,9.762956
2024-02-29T22:02:32.922Z,9.762386
2024-02-29T22:03:32.947Z,9.762624
2024-02-29T22:04:34.004Z,9.762806
2024-02-29T22:05:32.906Z,9.762532
2024-02-29T22:06:32.915Z,9.762692
2024-02-29T22:07:32.939Z,9.762646
2024-02-29T22:08:32.868Z,9.762646
2024-02-29T22:09:32.846Z,9.762001
2024-02-29T22:10:32.977Z,9.762001
2024-02-29T22:11:32.959Z,9.762001
2024-02-29T22:12:32.836Z,9.762001
2024-02-29T22:13:32.850Z,9.762001
2024-02-29T22:14:32.940Z,9.762001
2024-02-29T22:15:32.834Z,9.762001
2024-02-29T22:16:32.903Z,9.762001
2024-02-29T22:17:32.803Z,9.762001
2024-02-29T22:18:32.817Z,9.762001
2024-02-29T22:19:32.830Z,9.762700
2024-02-29T22:20:32.779Z,9.762820
2024-02-29T22:21:32.716Z,9.762567
2024-02-29T22:22:32.775Z,9.762611
2024-02-29T22:23:32.721Z,9.762670
2024-02-29T22:24:32.737Z,9.762808
2024-02-29T22:25:32.691Z,9.762689
2024-02-29T22:26:32.703Z,9.762771
2024-02-29T22:27:32.765Z,9.762854
2024-02-29T22:28:32.693Z,9.762901
2024-02-29T22:29:32.694Z,9.762938
2024-02-29T22:30:32.623Z,9.762811
2024-02-29T22:31:32.670Z,9.762909
2024-02-29T22:32:32.647Z,9.762816
2024-02-29T22:33:32.605Z,9.762981
2024-02-29T22:34:32.658Z,9.763701
2024-02-29T22:35:32.583Z,9.764342
2024-02-29T22:36:32.557Z,9.764130
2024-02-29T22:37:32.663Z,9.763884
2024-02-29T22:38:32.602Z,9.762902
2024-02-29T22:39:34.794Z,9.763159
